sensor_id;sensor_type;location;lat;lon;timestamp;temperature;humidity
5196;DHT22;2617;51.006;12.436;2024-03-23T00:58:55;8.30;99.90
5196;DHT22;2617;51.006;12.436;2024-03-23T01:03:58;8.40;99.90
5196;DHT22;2617;51.006;12.436;2024-03-23T01:09:00;8.40;99.90
5196;DHT22;2617;51.006;12.436;2024-03-23T01:14:03;8.40;99.90
5196;DHT22;2617;51.006;12.436;2024-03-23T01:19:05;8.40;99.90
5196;DHT22;2617;51.006;12.436;2024-03-23T01:24:08;8.40;99.90
5196;DHT22;2617;51.006;12.436;2024-03-23T01:29:10;8.40;99.90
5196;DHT22;2617;51.006;12.436;2024-03-23T01:34:13;8.40;99.90
5196;DHT22;2617;51.006;12.436;2024-03-23T01:39:16;8.50;99.90
5196;DHT22;2617;51.006;12.436;2024-03-23T01:44:19;8.50;99.90
5196;DHT22;2617;51.006;12.436;2024-03-23T01:49:22;8.50;99.90
5196;DHT22;2617;51.006;12.436;2024-03-23T01:54:25;8.50;99.90
5196;DHT22;2617;51.006;12.436;2024-03-23T01:59:28;8.50;99.90
5196;DHT22;2617;51.006;12.436;2024-03-23T02:04:30;8.50;99.90
5196;DHT22;2617;51.006;12.436;2024-03-23T02:09:32;8.50;99.90
5196;DHT22;2617;51.006;12.436;2024-03-23T02:14:35;8.50;99.90
5196;DHT22;2617;51.006;12.436;2024-03-23T02:19:37;8.60;99.90
5196;DHT22;2617;51.006;12.436;2024-03-23T02:24:41;8.60;99.90
5196;DHT22;2617;51.006;12.436;2024-03-23T02:29:43;8.60;99.90
5196;DHT22;2617;51.006;12.436;2024-03-23T02:34:46;8.60;99.90
5196;DHT22;2617;51.006;12.436;2024-03-23T02:39:48;8.70;99.90
5196;DHT22;2617;51.006;12.436;2024-03-23T02:44:50;8.70;99.90
5196;DHT22;2617;51.006;12.436;2024-03-23T02:49:54;8.70;99.90
5196;DHT22;2617;51.006;12.436;2024-03-23T02:54:57;8.70;99.90
5196;DHT22;2617;51.006;12.436;2024-03-23T02:59:59;8.70;99.90
5196;DHT22;2617;51.006;12.436;2024-03-23T03:05:02;8.70;99.90
5196;DHT22;2617;51.006;12.436;2024-03-23T03:10:05;8.70;99.90
5196;DHT22;2617;51.006;12.436;2024-03-23T03:15:09;8.70;99.90
5196;DHT22;2617;51.006;12.436;2024-03-23T03:20:11;8.70;99.90
5196;DHT22;2617;51.006;12.436;2024-03-23T03:25:14;8.70;99.90
5196;DHT22;2617;51.006;12.436;2024-03-23T03:30:17;8.80;99.90
5196;DHT22;2617;51.006;12.436;2024-03-23T03:35:19;8.70;99.90
5196;DHT22;2617;51.006;12.436;2024-03-23T03:40:22;8.70;99.90
5196;DHT22;2617;51.006;12.436;2024-03-23T03:45:25;8.70;99.90
5196;DHT22;2617;51.006;12.436;2024-03-23T03:50:28;8.70;99.90
5196;DHT22;2617;51.006;12.436;2024-03-23T03:55:30;8.70;99.90
5196;DHT22;2617;51.006;12.436;2024-03-23T04:00:33;8.70;99.90
5196;DHT22;2617;51.006;12.436;2024-03-23T04:05:35;8.70;99.90
5196;DHT22;2617;51.006;12.436;2024-03-23T04:10:38;8.60;99.90
5196;DHT22;2617;51.006;12.436;2024-03-23T04:15:40;8.60;99.90
5196;DHT22;2617;51.006;12.436;2024-03-23T04:20:43;8.60;99.90
5196;DHT22;2617;51.006;12.436;2024-03-23T04:25:45;8.50;99.90
5196;DHT22;2617;51.006;12.436;2024-03-23T04:30:48;8.50;99.90
5196;DHT22;2617;51.006;12.436;2024-03-23T04:35:50;8.50;99.90
5196;DHT22;2617;51.006;12.436;2024-03-23T04:40:56;8.50;99.90
5196;DHT22;2617;51.006;12.436;2024-03-23T04:45:58;8.50;99.90
5196;DHT22;2617;51.006;12.436;2024-03-23T04:51:01;8.40;99.90
5196;DHT22;2617;51.006;12.436;2024-03-23T04:56:04;8.40;99.90
5196;DHT22;2617;51.006;12.436;2024-03-23T05:01:07;8.40;99.90
5196;DHT22;2617;51.006;12.436;2024-03-23T05:06:09;8.40;99.90
5196;DHT22;2617;51.006;12.436;2024-03-23T05:11:13;8.50;99.90
5196;DHT22;2617;51.006;12.436;2024-03-23T05:16:16;8.40;99.90
5196;DHT22;2617;51.006;12.436;2024-03-23T05:21:18;8.40;99.90
5196;DHT22;2617;51.006;12.436;2024-03-23T05:26:22;8.40;99.90
5196;DHT22;2617;51.006;12.436;2024-03-23T05:31:25;8.40;99.90
5196;DHT22;2617;51.006;12.436;2024-03-23T05:36:28;8.30;99.90
5196;DHT22;2617;51.006;12.436;2024-03-23T05:41:30;8.30;99.90
5196;DHT22;2617;51.006;12.436;2024-03-23T05:46:34;8.40;99.90
5196;DHT22;2617;51.006;12.436;2024-03-23T05:51:36;8.40;99.90
5196;DHT22;2617;51.006;12.436;2024-03-23T05:56:39;8.30;99.90
5196;DHT22;2617;51.006;12.436;2024-03-23T06:01:41;8.30;99.90
5196;DHT22;2617;51.006;12.436;2024-03-23T06:06:44;8.30;99.90
5196;DHT22;2617;51.006;12.436;2024-03-23T06:11:46;8.20;99.90
5196;DHT22;2617;51.006;12.436;2024-03-23T06:16:49;8.20;99.90
5196;DHT22;2617;51.006;12.436;2024-03-23T06:21:52;8.20;99.90
5196;DHT22;2617;51.006;12.436;2024-03-23T06:26:54;8.20;99.90
5196;DHT22;2617;51.006;12.436;2024-03-23T06:31:57;8.20;99.90
5196;DHT22;2617;51.006;12.436;2024-03-23T06:36:59;8.30;99.90
5196;DHT22;2617;51.006;12.436;2024-03-23T06:42:02;8.30;99.90
5196;DHT22;2617;51.006;12.436;2024-03-23T06:47:04;8.40;99.90
5196;DHT22;2617;51.006;12.436;2024-03-23T06:52:07;8.50;99.90
5196;DHT22;2617;51.006;12.436;2024-03-23T06:57:11;8.50;99.90
5196;DHT22;2617;51.006;12.436;2024-03-23T07:02:13;8.50;99.90
5196;DHT22;2617;51.006;12.436;2024-03-23T07:07:17;8.60;99.90
5196;DHT22;2617;51.006;12.436;2024-03-23T07:12:19;8.70;99.90
5196;DHT22;2617;51.006;12.436;2024-03-23T07:17:22;8.70;99.90
5196;DHT22;2617;51.006;12.436;2024-03-23T07:22:25;9.10;99.90
5196;DHT22;2617;51.006;12.436;2024-03-23T07:27:27;9.10;99.90
5196;DHT22;2617;51.006;12.436;2024-03-23T07:32:30;9.10;99.90
5196;DHT22;2617;51.006;12.436;2024-03-23T07:37:32;9.40;99.90
5196;DHT22;2617;51.006;12.436;2024-03-23T07:42:36;10.30;99.90
5196;DHT22;2617;51.006;12.436;2024-03-23T07:47:38;10.30;99.90
5196;DHT22;2617;51.006;12.436;2024-03-23T07:52:40;10.40;99.90
5196;DHT22;2617;51.006;12.436;2024-03-23T07:57:43;10.50;99.90
5196;DHT22;2617;51.006;12.436;2024-03-23T08:02:46;10.40;99.90
5196;DHT22;2617;51.006;12.436;2024-03-23T08:07:50;10.20;99.90
5196;DHT22;2617;51.006;12.436;2024-03-23T08:12:51;9.70;99.90
5196;DHT22;2617;51.006;12.436;2024-03-23T08:17:53;8.90;99.90
5196;DHT22;2617;51.006;12.436;2024-03-23T08:22:56;7.70;99.90
5196;DHT22;2617;51.006;12.436;2024-03-23T08:27:58;6.70;99.90
5196;DHT22;2617;51.006;12.436;2024-03-23T08:33:01;5.40;99.90
5196;DHT22;2617;51.006;12.436;2024-03-23T08:38:06;5.40;99.90
5196;DHT22;2617;51.006;12.436;2024-03-23T08:43:08;5.00;99.90
5196;DHT22;2617;51.006;12.436;2024-03-23T08:48:10;4.70;99.90
5196;DHT22;2617;51.006;12.436;2024-03-23T08:53:13;4.30;99.90
5196;DHT22;2617;51.006;12.436;2024-03-23T08:58:15;4.10;99.90
5196;DHT22;2617;51.006;12.436;2024-03-23T09:03:19;4.20;99.90
5196;DHT22;2617;51.006;12.436;2024-03-23T09:08:21;4.10;99.90
5196;DHT22;2617;51.006;12.436;2024-03-23T09:13:23;4.10;99.90
5196;DHT22;2617;51.006;12.436;2024-03-23T09:18:26;4.10;99.90
5196;DHT22;2617;51.006;12.436;2024-03-23T09:23:29;4.20;99.90
5196;DHT22;2617;51.006;12.436;2024-03-23T09:28:32;4.20;99.90
5196;DHT22;2617;51.006;12.436;2024-03-23T09:33:35;4.20;99.90
5196;DHT22;2617;51.006;12.436;2024-03-23T09:38:37;4.10;99.90
5196;DHT22;2617;51.006;12.436;2024-03-23T09:43:39;4.10;99.90
5196;DHT22;2617;51.006;12.436;2024-03-23T09:48:42;4.10;99.90
5196;DHT22;2617;51.006;12.436;2024-03-23T09:53:45;4.10;99.90
5196;DHT22;2617;51.006;12.436;2024-03-23T09:58:47;4.10;99.90
5196;DHT22;2617;51.006;12.436;2024-03-23T10:03:50;4.10;99.90
5196;DHT22;2617;51.006;12.436;2024-03-23T10:08:53;4.00;99.90
5196;DHT22;2617;51.006;12.436;2024-03-23T10:13:56;4.00;99.90
5196;DHT22;2617;51.006;12.436;2024-03-23T10:18:59;4.00;99.90
5196;DHT22;2617;51.006;12.436;2024-03-23T10:24:07;4.00;99.90
5196;DHT22;2617;51.006;12.436;2024-03-23T10:29:04;4.40;99.90
5196;DHT22;2617;51.006;12.436;2024-03-23T10:34:07;4.30;99.90
5196;DHT22;2617;51.006;12.436;2024-03-23T10:39:09;4.40;99.90
5196;DHT22;2617;51.006;12.436;2024-03-23T10:44:12;4.40;99.90
5196;DHT22;2617;51.006;12.436;2024-03-23T10:49:15;4.70;99.90
5196;DHT22;2617;51.006;12.436;2024-03-23T10:54:18;4.60;99.90
5196;DHT22;2617;51.006;12.436;2024-03-23T10:59:20;4.90;99.90
5196;DHT22;2617;51.006;12.436;2024-03-23T11:04:33;5.00;99.90
5196;DHT22;2617;51.006;12.436;2024-03-23T11:09:38;5.30;99.90
5196;DHT22;2617;51.006;12.436;2024-03-23T11:14:40;5.50;99.90
5196;DHT22;2617;51.006;12.436;2024-03-23T11:19:43;5.30;99.90
5196;DHT22;2617;51.006;12.436;2024-03-23T11:24:49;5.20;99.90
5196;DHT22;2617;51.006;12.436;2024-03-23T11:29:48;5.40;99.90
5196;DHT22;2617;51.006;12.436;2024-03-23T11:34:50;5.60;99.90
5196;DHT22;2617;51.006;12.436;2024-03-23T11:39:54;5.70;99.90
5196;DHT22;2617;51.006;12.436;2024-03-23T11:44:57;5.70;99.90
5196;DHT22;2617;51.006;12.436;2024-03-23T11:50:00;5.60;99.90
5196;DHT22;2617;51.006;12.436;2024-03-23T11:55:04;5.50;99.90
5196;DHT22;2617;51.006;12.436;2024-03-23T12:05:25;5.30;99.90
5196;DHT22;2617;51.006;12.436;2024-03-23T12:10:27;5.20;99.90
5196;DHT22;2617;51.006;12.436;2024-03-23T12:15:29;5.70;99.90
5196;DHT22;2617;51.006;12.436;2024-03-23T12:20:31;6.40;99.90
5196;DHT22;2617;51.006;12.436;2024-03-23T12:25:35;6.80;99.90
5196;DHT22;2617;51.006;12.436;2024-03-23T12:30:40;7.30;99.90
5196;DHT22;2617;51.006;12.436;2024-03-23T12:35:42;7.80;99.90
5196;DHT22;2617;51.006;12.436;2024-03-23T12:40:48;7.60;99.90
5196;DHT22;2617;51.006;12.436;2024-03-23T12:45:51;7.90;99.90
5196;DHT22;2617;51.006;12.436;2024-03-23T12:50:55;8.50;99.90
5196;DHT22;2617;51.006;12.436;2024-03-23T12:55:59;8.70;99.90
5196;DHT22;2617;51.006;12.436;2024-03-23T13:01:01;8.70;99.90
5196;DHT22;2617;51.006;12.436;2024-03-23T13:06:04;9.60;99.90
5196;DHT22;2617;51.006;12.436;2024-03-23T13:11:07;9.60;99.90
5196;DHT22;2617;51.006;12.436;2024-03-23T13:16:10;9.60;99.90
5196;DHT22;2617;51.006;12.436;2024-03-23T13:21:13;9.60;99.90
5196;DHT22;2617;51.006;12.436;2024-03-23T13:26:15;9.50;99.90
5196;DHT22;2617;51.006;12.436;2024-03-23T13:31:17;9.80;99.90
5196;DHT22;2617;51.006;12.436;2024-03-23T13:36:21;9.60;99.90
5196;DHT22;2617;51.006;12.436;2024-03-23T13:41:24;9.90;99.90
5196;DHT22;2617;51.006;12.436;2024-03-23T13:46:26;10.00;99.90
5196;DHT22;2617;51.006;12.436;2024-03-23T13:51:28;10.00;99.90
5196;DHT22;2617;51.006;12.436;2024-03-23T13:56:31;9.80;97.00
5196;DHT22;2617;51.006;12.436;2024-03-23T14:01:33;9.50;97.40
5196;DHT22;2617;51.006;12.436;2024-03-23T14:06:36;9.30;99.20
5196;DHT22;2617;51.006;12.436;2024-03-23T14:11:39;9.80;99.90
5196;DHT22;2617;51.006;12.436;2024-03-23T14:16:41;9.80;99.90
5196;DHT22;2617;51.006;12.436;2024-03-23T14:21:44;10.20;99.90
5196;DHT22;2617;51.006;12.436;2024-03-23T14:26:46;10.60;98.00
5196;DHT22;2617;51.006;12.436;2024-03-23T14:31:48;10.30;95.50
5196;DHT22;2617;51.006;12.436;2024-03-23T14:36:52;10.20;96.00
5196;DHT22;2617;51.006;12.436;2024-03-23T14:41:55;10.70;92.70
5196;DHT22;2617;51.006;12.436;2024-03-23T14:46:57;10.70;92.60
5196;DHT22;2617;51.006;12.436;2024-03-23T14:52:00;10.70;93.20
5196;DHT22;2617;51.006;12.436;2024-03-23T14:57:02;10.60;91.40
5196;DHT22;2617;51.006;12.436;2024-03-23T15:02:05;10.60;92.10
5196;DHT22;2617;51.006;12.436;2024-03-23T15:07:08;10.10;91.30
5196;DHT22;2617;51.006;12.436;2024-03-23T15:12:10;10.10;91.30
5196;DHT22;2617;51.006;12.436;2024-03-23T15:17:13;9.10;99.90
5196;DHT22;2617;51.006;12.436;2024-03-23T15:22:15;7.60;99.90
5196;DHT22;2617;51.006;12.436;2024-03-23T15:27:18;6.50;99.90
5196;DHT22;2617;51.006;12.436;2024-03-23T15:32:20;5.90;99.90
5196;DHT22;2617;51.006;12.436;2024-03-23T15:37:23;5.70;99.90
5196;DHT22;2617;51.006;12.436;2024-03-23T15:42:25;5.60;99.90
5196;DHT22;2617;51.006;12.436;2024-03-23T15:47:28;5.70;99.90
5196;DHT22;2617;51.006;12.436;2024-03-23T15:52:31;5.70;99.90
5196;DHT22;2617;51.006;12.436;2024-03-23T15:57:33;5.80;99.90
5196;DHT22;2617;51.006;12.436;2024-03-23T16:02:36;6.00;99.90
5196;DHT22;2617;51.006;12.436;2024-03-23T16:07:38;6.40;99.90
5196;DHT22;2617;51.006;12.436;2024-03-23T16:12:41;6.60;99.90
5196;DHT22;2617;51.006;12.436;2024-03-23T16:17:44;6.50;99.90
5196;DHT22;2617;51.006;12.436;2024-03-23T16:22:47;6.50;99.90
5196;DHT22;2617;51.006;12.436;2024-03-23T16:27:49;6.50;99.90
5196;DHT22;2617;51.006;12.436;2024-03-23T16:32:52;6.40;99.90
5196;DHT22;2617;51.006;12.436;2024-03-23T16:37:54;6.50;99.90
5196;DHT22;2617;51.006;12.436;2024-03-23T16:42:57;6.50;99.90
5196;DHT22;2617;51.006;12.436;2024-03-23T16:47:59;6.50;99.90
5196;DHT22;2617;51.006;12.436;2024-03-23T16:53:02;6.40;99.90
5196;DHT22;2617;51.006;12.436;2024-03-23T16:58:04;6.30;99.90
5196;DHT22;2617;51.006;12.436;2024-03-23T17:03:07;6.00;99.90
5196;DHT22;2617;51.006;12.436;2024-03-23T17:08:10;6.00;99.90
5196;DHT22;2617;51.006;12.436;2024-03-23T17:13:12;5.90;99.90
5196;DHT22;2617;51.006;12.436;2024-03-23T17:18:14;5.80;99.90
5196;DHT22;2617;51.006;12.436;2024-03-23T17:23:26;5.70;99.90
5196;DHT22;2617;51.006;12.436;2024-03-23T17:28:28;5.70;99.90
5196;DHT22;2617;51.006;12.436;2024-03-23T17:33:30;5.70;99.90
5196;DHT22;2617;51.006;12.436;2024-03-23T17:38:33;5.60;99.90
5196;DHT22;2617;51.006;12.436;2024-03-23T17:43:35;5.70;99.90
5196;DHT22;2617;51.006;12.436;2024-03-23T17:48:38;5.70;99.90
5196;DHT22;2617;51.006;12.436;2024-03-23T17:53:40;5.70;99.90
5196;DHT22;2617;51.006;12.436;2024-03-23T17:58:47;5.50;99.90
5196;DHT22;2617;51.006;12.436;2024-03-23T18:03:50;5.10;99.90
5196;DHT22;2617;51.006;12.436;2024-03-23T18:08:48;5.10;99.90
5196;DHT22;2617;51.006;12.436;2024-03-23T18:13:51;5.00;99.90
5196;DHT22;2617;51.006;12.436;2024-03-23T18:18:54;4.80;99.90
5196;DHT22;2617;51.006;12.436;2024-03-23T18:23:57;4.70;99.90
5196;DHT22;2617;51.006;12.436;2024-03-23T18:28:59;4.60;99.90
5196;DHT22;2617;51.006;12.436;2024-03-23T18:34:02;4.50;99.90
5196;DHT22;2617;51.006;12.436;2024-03-23T18:39:04;4.40;99.90
5196;DHT22;2617;51.006;12.436;2024-03-23T18:44:08;4.10;99.90
5196;DHT22;2617;51.006;12.436;2024-03-23T18:49:10;4.10;99.90
5196;DHT22;2617;51.006;12.436;2024-03-23T18:54:12;4.00;99.90
5196;DHT22;2617;51.006;12.436;2024-03-23T18:59:15;4.00;99.90
5196;DHT22;2617;51.006;12.436;2024-03-23T19:04:18;3.80;99.90
5196;DHT22;2617;51.006;12.436;2024-03-23T19:09:20;3.80;99.90
5196;DHT22;2617;51.006;12.436;2024-03-23T19:14:23;3.80;99.90
5196;DHT22;2617;51.006;12.436;2024-03-23T19:19:25;3.70;99.90
5196;DHT22;2617;51.006;12.436;2024-03-23T19:24:28;3.60;99.90
5196;DHT22;2617;51.006;12.436;2024-03-23T19:29:31;3.60;99.90
5196;DHT22;2617;51.006;12.436;2024-03-23T19:34:33;3.60;99.90
5196;DHT22;2617;51.006;12.436;2024-03-23T19:39:36;3.40;99.90
5196;DHT22;2617;51.006;12.436;2024-03-23T19:44:38;3.40;99.90
5196;DHT22;2617;51.006;12.436;2024-03-23T19:49:40;3.30;99.90
5196;DHT22;2617;51.006;12.436;2024-03-23T19:54:43;3.30;99.90
5196;DHT22;2617;51.006;12.436;2024-03-23T19:59:45;3.20;99.90
5196;DHT22;2617;51.006;12.436;2024-03-23T20:04:48;3.20;99.90
5196;DHT22;2617;51.006;12.436;2024-03-23T20:09:50;3.10;99.90
5196;DHT22;2617;51.006;12.436;2024-03-23T20:14:53;3.10;99.90
5196;DHT22;2617;51.006;12.436;2024-03-23T20:19:56;3.10;99.90
5196;DHT22;2617;51.006;12.436;2024-03-23T20:24:59;3.10;99.90
5196;DHT22;2617;51.006;12.436;2024-03-23T20:30:03;3.10;99.90
5196;DHT22;2617;51.006;12.436;2024-03-23T20:35:06;3.10;99.90
5196;DHT22;2617;51.006;12.436;2024-03-23T20:40:09;3.10;99.90
5196;DHT22;2617;51.006;12.436;2024-03-23T20:45:11;3.10;99.90
5196;DHT22;2617;51.006;12.436;2024-03-23T20:50:15;3.00;99.90
5196;DHT22;2617;51.006;12.436;2024-03-23T20:55:17;3.00;99.90
5196;DHT22;2617;51.006;12.436;2024-03-23T21:00:20;3.00;99.90
5196;DHT22;2617;51.006;12.436;2024-03-23T21:05:23;3.00;99.90
5196;DHT22;2617;51.006;12.436;2024-03-23T21:10:26;3.00;99.90
5196;DHT22;2617;51.006;12.436;2024-03-23T21:15:29;3.00;99.90
5196;DHT22;2617;51.006;12.436;2024-03-23T21:20:31;2.80;99.90
5196;DHT22;2617;51.006;12.436;2024-03-23T21:25:33;2.80;99.90
5196;DHT22;2617;51.006;12.436;2024-03-23T21:30:36;2.70;99.90
5196;DHT22;2617;51.006;12.436;2024-03-23T21:35:38;2.60;99.90
5196;DHT22;2617;51.006;12.436;2024-03-23T21:40:41;2.60;99.90
5196;DHT22;2617;51.006;12.436;2024-03-23T21:45:51;2.60;99.90
5196;DHT22;2617;51.006;12.436;2024-03-23T21:50:46;2.40;99.90
5196;DHT22;2617;51.006;12.436;2024-03-23T21:55:50;2.40;99.90
5196;DHT22;2617;51.006;12.436;2024-03-23T22:00:52;2.40;99.90
5196;DHT22;2617;51.006;12.436;2024-03-23T22:05:54;2.40;99.90
5196;DHT22;2617;51.006;12.436;2024-03-23T22:10:57;2.30;99.90
5196;DHT22;2617;51.006;12.436;2024-03-23T22:16:00;2.30;99.90
5196;DHT22;2617;51.006;12.436;2024-03-23T22:21:02;2.30;99.90
5196;DHT22;2617;51.006;12.436;2024-03-23T22:26:05;2.40;99.90
5196;DHT22;2617;51.006;12.436;2024-03-23T22:31:07;2.50;99.90
5196;DHT22;2617;51.006;12.436;2024-03-23T22:36:10;2.60;99.90
5196;DHT22;2617;51.006;12.436;2024-03-23T22:41:13;2.80;99.90
5196;DHT22;2617;51.006;12.436;2024-03-23T22:46:15;2.80;99.90
5196;DHT22;2617;51.006;12.436;2024-03-23T22:51:18;2.90;99.90
5196;DHT22;2617;51.006;12.436;2024-03-23T22:56:20;2.80;99.90
5196;DHT22;2617;51.006;12.436;2024-03-23T23:01:23;2.90;99.90
5196;DHT22;2617;51.006;12.436;2024-03-23T23:06:25;2.80;99.90
5196;DHT22;2617;51.006;12.436;2024-03-23T23:11:28;2.80;99.90
5196;DHT22;2617;51.006;12.436;2024-03-23T23:16:30;2.80;99.90
5196;DHT22;2617;51.006;12.436;2024-03-23T23:21:33;2.70;99.90
5196;DHT22;2617;51.006;12.436;2024-03-23T23:26:35;2.60;99.90
5196;DHT22;2617;51.006;12.436;2024-03-23T23:31:37;2.60;99.90
5196;DHT22;2617;51.006;12.436;2024-03-23T23:36:40;2.60;99.90
5196;DHT22;2617;51.006;12.436;2024-03-23T23:41:43;2.50;99.90
5196;DHT22;2617;51.006;12.436;2024-03-23T23:46:45;2.50;99.90
5196;DHT22;2617;51.006;12.436;2024-03-23T23:51:48;2.40;99.90
5196;DHT22;2617;51.006;12.436;2024-03-23T23:56:50;2.40;99.90
